createdAt,value
2022-08-04T00:00:49.475Z,21.92
2022-08-04T00:03:57.488Z,21.79
2022-08-04T00:07:05.049Z,21.67
2022-08-04T00:10:13.239Z,21.54
2022-08-04T00:13:21.480Z,21.46
2022-08-04T00:16:31.441Z,21.56
2022-08-04T00:19:33.607Z,21.57
2022-08-04T00:22:35.136Z,21.51
2022-08-04T00:25:43.459Z,21.45
2022-08-04T00:28:51.452Z,21.35
2022-08-04T00:31:59.307Z,21.27
2022-08-04T00:35:07.632Z,21.20
2022-08-04T00:38:15.262Z,21.30
2022-08-04T00:41:23.621Z,21.35
2022-08-04T00:44:31.555Z,21.30
2022-08-04T00:47:39.363Z,21.26
2022-08-04T00:50:47.676Z,21.21
2022-08-04T00:53:55.106Z,21.19
2022-08-04T00:57:03.126Z,21.08
2022-08-04T01:00:11.495Z,21.04
2022-08-04T01:03:19.002Z,21.01
2022-08-04T01:06:27.465Z,20.96
2022-08-04T01:09:35.422Z,20.99
2022-08-04T01:12:43.383Z,21.01
2022-08-04T01:15:57.108Z,20.95
2022-08-04T01:18:56.973Z,20.89
2022-08-04T01:22:04.899Z,20.91
2022-08-04T01:25:12.484Z,20.89
2022-08-04T01:28:22.166Z,20.81
2022-08-04T01:31:32.347Z,20.76
2022-08-04T01:34:40.042Z,20.71
2022-08-04T01:37:48.332Z,20.72
2022-08-04T01:40:55.931Z,20.76
2022-08-04T01:44:04.535Z,20.81
2022-08-04T01:47:13.037Z,20.77
2022-08-04T01:50:21.735Z,20.65
2022-08-04T01:53:30.282Z,20.62
2022-08-04T01:56:38.252Z,20.66
2022-08-04T01:59:46.182Z,20.66
2022-08-04T02:02:54.686Z,20.65
2022-08-04T02:06:04.181Z,20.71
2022-08-04T02:09:12.270Z,20.72
2022-08-04T02:12:20.053Z,20.72
2022-08-04T02:15:28.481Z,20.61
2022-08-04T02:18:36.064Z,20.47
2022-08-04T02:21:43.567Z,20.35
2022-08-04T02:24:51.659Z,20.28
2022-08-04T02:28:00.979Z,20.21
2022-08-04T02:31:09.343Z,20.24
2022-08-04T02:34:17.624Z,20.30
2022-08-04T02:37:25.447Z,20.34
2022-08-04T02:40:33.651Z,20.35
2022-08-04T02:43:51.931Z,20.30
2022-08-04T02:46:47.575Z,20.21
2022-08-04T02:49:55.616Z,20.13
2022-08-04T02:53:09.901Z,20.16
2022-08-04T02:56:07.928Z,20.20
2022-08-04T02:59:15.659Z,20.25
2022-08-04T03:02:23.625Z,20.25
2022-08-04T03:05:31.581Z,20.30
2022-08-04T03:08:36.986Z,20.27
2022-08-04T03:11:45.473Z,20.13
2022-08-04T03:14:53.005Z,19.97
2022-08-04T03:18:01.208Z,19.88
2022-08-04T03:21:09.677Z,19.79
2022-08-04T03:24:20.332Z,19.69
2022-08-04T03:27:28.896Z,19.66
2022-08-04T03:30:36.824Z,19.66
2022-08-04T03:33:45.158Z,19.75
2022-08-04T03:36:53.714Z,19.86
2022-08-04T03:40:01.867Z,19.95
2022-08-04T03:43:09.945Z,19.98
2022-08-04T03:46:15.876Z,20.03
2022-08-04T03:49:23.726Z,20.03
2022-08-04T03:52:31.617Z,20.02
2022-08-04T03:55:39.599Z,20.03
2022-08-04T03:58:47.591Z,20.00
2022-08-04T04:02:01.221Z,20.00
2022-08-04T04:05:00.187Z,20.09
2022-08-04T04:08:13.765Z,20.15
2022-08-04T04:11:14.628Z,20.23
2022-08-04T04:14:22.989Z,20.20
2022-08-04T04:17:31.365Z,20.21
2022-08-04T04:20:38.849Z,20.25
2022-08-04T04:23:47.415Z,20.25
2022-08-04T04:26:54.909Z,20.27
2022-08-04T04:30:03.366Z,20.28
2022-08-04T04:33:11.822Z,20.20
2022-08-04T04:36:20.086Z,20.06
2022-08-04T04:39:28.423Z,20.02
2022-08-04T04:42:36.697Z,20.09
2022-08-04T04:45:44.197Z,20.10
2022-08-04T04:48:52.711Z,20.13
2022-08-04T04:52:00.727Z,20.15
2022-08-04T04:55:08.846Z,20.23
2022-08-04T04:58:16.670Z,20.25
2022-08-04T05:01:25.005Z,20.28
2022-08-04T05:04:32.813Z,20.23
2022-08-04T05:07:41.308Z,20.16
2022-08-04T05:10:49.531Z,20.27
2022-08-04T05:14:37.625Z,20.41
2022-08-04T05:17:02.766Z,20.56
2022-08-04T05:20:11.123Z,20.77
2022-08-04T05:23:20.172Z,21.05
2022-08-04T05:26:28.301Z,21.38
2022-08-04T05:29:36.338Z,21.66
2022-08-04T05:32:44.236Z,21.92
2022-08-04T05:36:16.827Z,22.16
2022-08-04T05:38:57.276Z,22.34
2022-08-04T05:42:05.116Z,22.50
2022-08-04T05:45:15.305Z,22.60
2022-08-04T05:48:23.369Z,22.74
2022-08-04T05:51:31.229Z,22.86
2022-08-04T05:54:38.742Z,22.94
2022-08-04T05:57:46.972Z,23.02
2022-08-04T06:00:54.923Z,23.09
2022-08-04T06:04:05.750Z,23.19
2022-08-04T06:07:08.070Z,23.27
2022-08-04T06:10:15.605Z,23.40
2022-08-04T06:13:48.996Z,23.49
2022-08-04T06:16:30.818Z,23.61
2022-08-04T06:20:01.891Z,23.72
2022-08-04T06:22:43.969Z,23.85
2022-08-04T06:25:52.120Z,23.97
2022-08-04T06:29:00.390Z,24.08
2022-08-04T06:32:30.810Z,24.20
2022-08-04T06:35:13.869Z,24.37
2022-08-04T06:38:21.926Z,24.54
2022-08-04T06:41:29.827Z,24.79
2022-08-04T06:44:38.338Z,25.05
2022-08-04T06:47:46.230Z,25.31
2022-08-04T06:51:31.983Z,25.61
2022-08-04T06:53:59.753Z,25.80
2022-08-04T06:57:07.213Z,26.02
2022-08-04T07:00:15.234Z,26.24
2022-08-04T07:03:23.044Z,26.44
2022-08-04T07:06:30.418Z,26.62
2022-08-04T07:09:38.412Z,26.79
2022-08-04T07:12:46.790Z,26.96
2022-08-04T07:15:54.190Z,27.19
2022-08-04T07:19:10.020Z,27.32
2022-08-04T07:22:24.851Z,27.46
2022-08-04T07:25:13.097Z,27.69
2022-08-04T07:28:21.355Z,27.84
2022-08-04T07:31:34.193Z,27.96
2022-08-04T07:34:32.099Z,28.07
2022-08-04T07:37:40.120Z,28.26
2022-08-04T07:40:48.299Z,28.46
2022-08-04T07:43:56.703Z,28.54
2022-08-04T07:47:04.677Z,28.69
2022-08-04T07:50:14.017Z,28.93
2022-08-04T07:53:55.284Z,29.25
2022-08-04T07:56:29.160Z,29.56
2022-08-04T07:59:38.141Z,29.78
2022-08-04T08:02:45.592Z,29.87
2022-08-04T08:06:17.962Z,29.89
2022-08-04T08:08:58.546Z,29.94
2022-08-04T08:12:38.548Z,30.09
2022-08-04T08:15:12.176Z,30.27
2022-08-04T08:18:13.241Z,30.33
2022-08-04T08:21:21.454Z,30.54
2022-08-04T08:24:29.313Z,30.76
2022-08-04T08:27:37.363Z,31.01
2022-08-04T08:30:46.217Z,31.23
2022-08-04T08:33:50.366Z,31.39
2022-08-04T08:36:58.547Z,31.64
2022-08-04T08:40:06.779Z,31.76
2022-08-04T08:44:04.525Z,31.87
2022-08-04T08:46:38.811Z,31.99
2022-08-04T08:50:00.171Z,32.14
2022-08-04T08:52:55.363Z,32.48
2022-08-04T08:55:35.942Z,32.62
2022-08-04T08:58:43.997Z,32.81
2022-08-04T09:01:52.109Z,32.96
2022-08-04T09:04:59.979Z,33.17
2022-08-04T09:08:07.778Z,33.29
2022-08-04T09:11:15.611Z,33.37
2022-08-04T09:14:23.978Z,33.42
2022-08-04T09:17:31.925Z,33.60
2022-08-04T09:20:39.965Z,33.64
2022-08-04T09:23:48.531Z,33.80
2022-08-04T09:26:59.914Z,33.92
2022-08-04T09:29:57.371Z,34.02
2022-08-04T09:33:05.157Z,34.07
2022-08-04T09:36:12.994Z,34.17
2022-08-04T09:39:21.377Z,34.58
2022-08-04T09:42:29.358Z,34.72
2022-08-04T09:45:42.252Z,34.64
2022-08-04T09:48:40.511Z,34.51
2022-08-04T09:51:57.443Z,34.74
2022-08-04T09:54:53.814Z,34.92
2022-08-04T09:58:02.036Z,34.86
2022-08-04T10:01:10.373Z,34.79
2022-08-04T10:04:17.820Z,34.72
2022-08-04T10:07:28.149Z,34.72
2022-08-04T10:10:36.353Z,34.86
2022-08-04T10:13:43.882Z,34.98
2022-08-04T10:16:52.367Z,34.98
2022-08-04T10:20:00.505Z,35.07
2022-08-04T10:23:11.499Z,35.21
2022-08-04T10:26:09.719Z,35.42
2022-08-04T10:29:17.570Z,35.92
2022-08-04T10:32:25.382Z,36.01
2022-08-04T10:35:33.184Z,36.15
2022-08-04T10:38:41.562Z,36.03
2022-08-04T10:41:49.504Z,35.76
2022-08-04T10:44:57.952Z,35.74
2022-08-04T10:48:06.335Z,36.01
2022-08-04T10:51:07.599Z,36.64
2022-08-04T10:54:15.841Z,37.05
2022-08-04T10:57:24.493Z,37.21
2022-08-04T11:00:31.993Z,37.32
2022-08-04T11:03:40.328Z,37.31
2022-08-04T11:06:48.379Z,37.13
2022-08-04T11:09:56.411Z,37.09
2022-08-04T11:13:04.772Z,37.20
2022-08-04T11:16:12.787Z,37.23
2022-08-04T11:19:20.725Z,37.26
2022-08-04T11:22:28.933Z,37.36
2022-08-04T11:25:36.786Z,37.21
2022-08-04T11:28:44.597Z,37.12
2022-08-04T11:31:52.611Z,37.02
2022-08-04T11:35:00.542Z,36.92
2022-08-04T11:38:08.754Z,36.99
2022-08-04T11:41:16.864Z,37.14
2022-08-04T11:44:24.869Z,37.31
2022-08-04T11:47:32.676Z,37.19
2022-08-04T11:50:40.860Z,37.28
2022-08-04T11:53:48.587Z,37.41
2022-08-04T11:56:56.454Z,37.23
2022-08-04T12:00:09.429Z,37.10
2022-08-04T12:03:06.096Z,36.79
2022-08-04T12:06:13.866Z,36.51
2022-08-04T12:09:21.896Z,36.48
2022-08-04T12:12:29.642Z,36.54
2022-08-04T12:15:38.014Z,36.86
2022-08-04T12:18:45.947Z,36.92
2022-08-04T12:21:56.875Z,37.33
2022-08-04T12:25:04.980Z,37.58
2022-08-04T12:28:13.092Z,37.71
2022-08-04T12:31:21.210Z,37.55
2022-08-04T12:34:30.109Z,37.58
2022-08-04T12:37:37.964Z,37.81
2022-08-04T12:40:45.776Z,37.96
2022-08-04T12:43:53.491Z,37.92
2022-08-04T12:47:27.040Z,38.07
2022-08-04T12:50:06.804Z,37.80
2022-08-04T12:53:16.971Z,37.61
2022-08-04T12:56:20.453Z,38.05
2022-08-04T12:59:28.225Z,38.14
2022-08-04T13:02:36.931Z,38.04
2022-08-04T13:05:44.891Z,37.86
2022-08-04T13:08:52.639Z,37.99
2022-08-04T13:12:01.931Z,38.15
2022-08-04T13:15:10.260Z,38.44
2022-08-04T13:18:15.246Z,38.38
2022-08-04T13:21:49.843Z,37.83
2022-08-04T13:24:32.411Z,37.86
2022-08-04T13:27:43.016Z,37.78
2022-08-04T13:30:35.891Z,37.66
2022-08-04T13:33:43.685Z,37.68
2022-08-04T13:36:52.222Z,37.88
2022-08-04T13:40:00.133Z,38.14
2022-08-04T13:43:08.389Z,38.34
2022-08-04T13:46:13.694Z,38.45
2022-08-04T13:49:48.498Z,37.90
2022-08-04T13:52:24.411Z,37.43
2022-08-04T13:55:32.421Z,37.39
2022-08-04T13:58:41.066Z,37.47
2022-08-04T14:01:48.667Z,37.61
2022-08-04T14:04:54.185Z,37.62
2022-08-04T14:08:02.410Z,37.64
2022-08-04T14:11:09.906Z,37.83
2022-08-04T14:14:15.498Z,37.77
2022-08-04T14:17:23.115Z,37.73
2022-08-04T14:20:27.537Z,37.64
2022-08-04T14:23:36.018Z,37.68
2022-08-04T14:26:40.839Z,37.90
2022-08-04T14:29:48.885Z,38.26
2022-08-04T14:32:58.018Z,38.29
2022-08-04T14:36:06.326Z,37.90
2022-08-04T14:39:11.633Z,38.03
2022-08-04T14:42:19.655Z,37.98
2022-08-04T14:45:27.706Z,38.14
2022-08-04T14:48:39.674Z,38.27
2022-08-04T14:51:39.769Z,38.32
2022-08-04T14:54:47.974Z,38.42
2022-08-04T14:58:34.748Z,38.22
2022-08-04T15:01:01.403Z,38.04
2022-08-04T15:04:06.403Z,37.62
2022-08-04T15:07:16.833Z,37.38
2022-08-04T15:10:25.001Z,37.23
2022-08-04T15:13:32.653Z,36.92
2022-08-04T15:16:54.259Z,36.75
2022-08-04T15:19:55.968Z,36.58
2022-08-04T15:22:51.412Z,36.36
2022-08-04T15:25:59.577Z,36.20
2022-08-04T15:29:07.831Z,35.92
2022-08-04T15:32:16.601Z,35.67
2022-08-04T15:35:31.985Z,35.45
2022-08-04T15:38:31.203Z,35.20
2022-08-04T15:41:38.809Z,34.69
2022-08-04T15:44:42.713Z,34.36
2022-08-04T15:47:53.494Z,34.07
2022-08-04T15:50:50.990Z,33.98
2022-08-04T15:54:03.403Z,33.51
2022-08-04T15:57:03.463Z,33.19
2022-08-04T16:00:15.072Z,33.17
2022-08-04T16:03:12.391Z,33.20
2022-08-04T16:06:20.264Z,33.11
2022-08-04T16:09:45.518Z,33.17
2022-08-04T16:12:53.223Z,33.30
2022-08-04T16:15:39.334Z,33.22
2022-08-04T16:18:47.973Z,33.11
2022-08-04T16:21:55.871Z,33.26
2022-08-04T16:25:03.323Z,33.36
2022-08-04T16:28:11.285Z,33.49
2022-08-04T16:31:19.275Z,33.33
2022-08-04T16:34:49.187Z,32.99
2022-08-04T16:37:33.179Z,32.77
2022-08-04T16:40:41.421Z,32.61
2022-08-04T16:43:49.340Z,32.61
2022-08-04T16:47:08.465Z,32.67
2022-08-04T16:50:03.309Z,32.59
2022-08-04T16:53:40.004Z,32.47
2022-08-04T16:56:16.651Z,32.32
2022-08-04T16:59:26.478Z,32.21
2022-08-04T17:02:34.239Z,32.13
2022-08-04T17:05:42.552Z,32.03
2022-08-04T17:08:50.743Z,31.93
2022-08-04T17:11:58.227Z,31.80
2022-08-04T17:15:06.670Z,31.68
2022-08-04T17:18:14.668Z,31.55
2022-08-04T17:21:15.916Z,31.42
2022-08-04T17:24:24.467Z,31.33
2022-08-04T17:28:19.896Z,31.26
2022-08-04T17:30:37.761Z,31.08
2022-08-04T17:33:54.391Z,30.96
2022-08-04T17:36:48.179Z,30.87
2022-08-04T17:39:56.482Z,30.52
2022-08-04T17:44:01.281Z,30.45
2022-08-04T17:46:09.539Z,30.33
2022-08-04T17:49:09.771Z,30.24
2022-08-04T17:52:27.489Z,30.08
2022-08-04T17:55:23.330Z,30.02
2022-08-04T17:58:26.998Z,29.90
2022-08-04T18:01:35.447Z,29.72
2022-08-04T18:04:40.237Z,29.71
2022-08-04T18:08:34.470Z,29.60
2022-08-04T18:10:55.038Z,29.43
2022-08-04T18:13:53.361Z,29.18
2022-08-04T18:17:02.143Z,29.01
2022-08-04T18:20:07.254Z,28.96
2022-08-04T18:23:16.792Z,28.88
2022-08-04T18:26:25.367Z,28.82
2022-08-04T18:32:33.126Z,28.59
2022-08-04T18:36:33.181Z,28.47
2022-08-04T18:38:37.119Z,28.28
2022-08-04T18:41:51.524Z,28.19
2022-08-04T18:44:52.622Z,28.14
2022-08-04T18:47:58.658Z,28.09
2022-08-04T18:51:11.157Z,28.07
2022-08-04T18:54:01.842Z,27.95
2022-08-04T19:00:16.496Z,27.76
2022-08-04T19:03:30.449Z,27.76
2022-08-04T19:06:35.127Z,27.67
2022-08-04T19:09:50.929Z,27.66
2022-08-04T19:12:49.288Z,27.54
2022-08-04T19:15:58.995Z,27.36
2022-08-04T19:19:08.870Z,27.20
2022-08-04T19:22:36.096Z,27.05
2022-08-04T19:26:02.648Z,26.89
2022-08-04T19:28:29.896Z,26.76
2022-08-04T19:31:40.185Z,26.65
2022-08-04T19:34:35.829Z,26.59
2022-08-04T19:37:56.829Z,26.54
2022-08-04T19:40:50.470Z,26.49
2022-08-04T19:43:50.261Z,26.42
2022-08-04T19:47:00.686Z,26.46
2022-08-04T19:50:05.281Z,26.46
2022-08-04T19:53:19.283Z,26.43
2022-08-04T19:56:10.268Z,26.46
2022-08-04T19:59:18.081Z,26.37
2022-08-04T20:02:28.023Z,26.28
2022-08-04T20:05:53.155Z,26.25
2022-08-04T20:08:48.506Z,26.21
2022-08-04T20:11:45.143Z,26.09
2022-08-04T20:14:54.484Z,25.97
2022-08-04T20:18:35.159Z,25.86
2022-08-04T20:21:11.384Z,25.80
2022-08-04T20:24:39.068Z,25.72
2022-08-04T20:27:18.860Z,25.67
2022-08-04T20:30:28.489Z,25.53
2022-08-04T20:33:36.825Z,25.44
2022-08-04T20:36:49.772Z,25.49
2022-08-04T20:39:54.502Z,25.47
2022-08-04T20:42:51.632Z,25.52
2022-08-04T20:45:59.883Z,25.56
2022-08-04T20:49:07.936Z,25.62
2022-08-04T20:52:20.372Z,25.61
2022-08-04T20:55:17.702Z,25.57
2022-08-04T20:58:27.591Z,25.59
2022-08-04T21:01:30.810Z,25.62
2022-08-04T21:04:45.321Z,25.67
2022-08-04T21:07:48.959Z,25.68
2022-08-04T21:10:47.406Z,25.67
2022-08-04T21:13:55.987Z,25.64
2022-08-04T21:17:07.138Z,25.50
2022-08-04T21:20:14.768Z,25.50
2022-08-04T21:23:20.372Z,25.49
2022-08-04T21:26:30.253Z,25.47
2022-08-04T21:29:38.314Z,25.39
2022-08-04T21:32:47.015Z,25.42
2022-08-04T21:35:46.875Z,25.37
2022-08-04T21:38:56.726Z,25.34
2022-08-04T21:42:28.877Z,25.34
2022-08-04T21:45:10.509Z,25.39
2022-08-04T21:48:18.972Z,25.43
2022-08-04T21:51:58.488Z,25.38
2022-08-04T21:54:32.582Z,25.31
2022-08-04T21:57:42.030Z,25.24
2022-08-04T22:00:52.771Z,25.07
2022-08-04T22:04:01.169Z,24.91
2022-08-04T22:07:09.059Z,24.75
2022-08-04T22:10:22.396Z,24.60
2022-08-04T22:13:22.976Z,24.56
2022-08-04T22:16:30.422Z,24.57
2022-08-04T22:19:50.725Z,24.56
2022-08-04T22:22:43.944Z,24.47
2022-08-04T22:25:55.858Z,24.44
2022-08-04T22:28:52.979Z,24.41
2022-08-04T22:32:00.326Z,24.32
2022-08-04T22:35:36.122Z,24.23
2022-08-04T22:38:24.100Z,24.22
2022-08-04T22:41:19.217Z,24.22
2022-08-04T22:44:32.330Z,24.19
2022-08-04T22:47:30.748Z,24.20
2022-08-04T22:50:38.606Z,24.07
2022-08-04T22:53:49.150Z,23.98
2022-08-04T22:56:57.072Z,23.90
2022-08-04T23:00:04.938Z,23.98
2022-08-04T23:03:36.869Z,23.92
2022-08-04T23:06:18.212Z,23.79
2022-08-04T23:09:21.482Z,23.58
2022-08-04T23:12:29.940Z,23.49
2022-08-04T23:15:38.311Z,23.42
2022-08-04T23:18:48.276Z,23.20
2022-08-04T23:21:47.919Z,23.05
2022-08-04T23:24:51.746Z,22.90
2022-08-04T23:27:59.629Z,22.80
2022-08-04T23:31:10.093Z,22.78
2022-08-04T23:34:07.320Z,22.72
2022-08-04T23:37:16.205Z,22.38
2022-08-04T23:40:32.742Z,22.20
2022-08-04T23:43:49.268Z,22.17
2022-08-04T23:46:34.735Z,22.20
2022-08-04T23:49:45.014Z,22.17
2022-08-04T23:52:53.647Z,22.16
2022-08-04T23:56:01.070Z,21.90
2022-08-04T23:59:23.115Z,21.74
